createdAt,value
2023-06-15T00:01:57.889Z,14.73
2023-06-15T00:04:24.464Z,14.71
2023-06-15T00:06:51.113Z,14.68
2023-06-15T00:09:17.664Z,14.81
2023-06-15T00:11:44.171Z,14.56
2023-06-15T00:14:10.745Z,14.67
2023-06-15T00:16:42.629Z,14.59
2023-06-15T00:19:09.792Z,14.73
2023-06-15T00:21:42.272Z,14.61
2023-06-15T00:24:10.293Z,14.52
2023-06-15T00:26:37.520Z,14.45
2023-06-15T00:29:04.072Z,14.39
2023-06-15T00:31:30.601Z,14.41
2023-06-15T00:33:57.113Z,14.50
2023-06-15T00:36:23.625Z,14.61
2023-06-15T00:38:50.149Z,14.46
2023-06-15T00:41:16.689Z,14.43
2023-06-15T00:43:43.236Z,14.38
2023-06-15T00:46:09.739Z,14.06
2023-06-15T00:48:36.285Z,14.16
2023-06-15T00:51:02.819Z,14.11
2023-06-15T00:53:29.330Z,13.90
2023-06-15T00:55:56.894Z,13.94
2023-06-15T00:58:25.118Z,14.02
2023-06-15T01:00:51.733Z,13.94
2023-06-15T01:03:21.558Z,14.08
2023-06-15T01:05:48.540Z,14.17
2023-06-15T01:08:16.379Z,14.10
2023-06-15T01:13:30.797Z,13.92
2023-06-15T01:15:58.348Z,13.68
2023-06-15T01:18:25.507Z,13.59
2023-06-15T01:20:55.001Z,13.67
2023-06-15T01:23:30.528Z,13.83
2023-06-15T01:26:07.406Z,13.97
2023-06-15T01:28:42.200Z,13.92
2023-06-15T01:31:09.980Z,13.97
2023-06-15T01:33:49.201Z,14.08
2023-06-15T01:36:15.961Z,14.07
2023-06-15T01:38:42.509Z,13.93
2023-06-15T01:41:09.054Z,13.99
2023-06-15T01:43:35.868Z,14.05
2023-06-15T01:46:03.038Z,14.20
2023-06-15T01:48:29.644Z,14.09
2023-06-15T01:50:56.169Z,14.14
2023-06-15T01:53:23.142Z,14.02
2023-06-15T01:55:49.664Z,13.75
2023-06-15T01:58:16.734Z,13.75
2023-06-15T02:00:44.232Z,13.86
2023-06-15T02:03:12.113Z,13.79
2023-06-15T02:05:41.103Z,14.01
2023-06-15T02:08:10.885Z,13.89
2023-06-15T02:10:37.725Z,13.75
2023-06-15T02:13:04.836Z,13.67
2023-06-15T02:15:31.449Z,13.98
2023-06-15T02:18:02.469Z,13.94
2023-06-15T02:20:29.453Z,13.90
2023-06-15T02:22:58.282Z,13.83
2023-06-15T02:25:25.953Z,13.81
2023-06-15T02:27:52.662Z,13.81
2023-06-15T02:30:19.185Z,13.65
2023-06-15T02:32:46.727Z,13.78
2023-06-15T02:35:13.671Z,13.75
2023-06-15T02:37:40.630Z,13.81
2023-06-15T02:40:08.092Z,13.60
2023-06-15T02:42:34.781Z,13.54
2023-06-15T02:45:02.468Z,13.67
2023-06-15T02:47:32.631Z,13.68
2023-06-15T02:50:05.912Z,13.67
2023-06-15T02:52:33.389Z,13.74
2023-06-15T02:55:00.360Z,13.71
2023-06-15T02:57:27.141Z,14.01
2023-06-15T02:59:54.369Z,13.75
2023-06-15T03:02:23.957Z,13.69
2023-06-15T03:04:51.723Z,13.64
2023-06-15T03:07:21.867Z,13.60
2023-06-15T03:09:48.698Z,13.63
2023-06-15T03:12:15.348Z,13.76
2023-06-15T03:14:45.302Z,13.81
2023-06-15T03:17:13.973Z,13.56
2023-06-15T03:19:41.196Z,13.55
2023-06-15T03:22:09.185Z,13.71
2023-06-15T03:24:35.759Z,13.60
2023-06-15T03:27:04.121Z,13.58
2023-06-15T03:29:32.673Z,13.62
2023-06-15T03:31:59.435Z,13.83
2023-06-15T03:34:27.228Z,14.00
2023-06-15T03:36:53.826Z,14.03
2023-06-15T03:39:20.402Z,13.89
2023-06-15T03:41:46.911Z,13.76
2023-06-15T03:44:13.473Z,13.98
2023-06-15T03:46:39.970Z,14.23
2023-06-15T03:49:07.041Z,14.21
2023-06-15T03:51:33.650Z,14.29
2023-06-15T03:54:00.881Z,14.23
2023-06-15T03:56:27.971Z,14.42
2023-06-15T03:58:54.487Z,14.49
2023-06-15T04:01:21.943Z,14.45
2023-06-15T04:03:48.489Z,14.47
2023-06-15T04:06:16.224Z,14.43
2023-06-15T04:08:42.727Z,14.41
2023-06-15T04:11:09.253Z,14.35
2023-06-15T04:13:36.249Z,14.37
2023-06-15T04:16:02.781Z,14.41
2023-06-15T04:18:29.289Z,14.42
2023-06-15T04:20:56.212Z,14.59
2023-06-15T04:23:23.321Z,14.93
2023-06-15T04:25:50.009Z,14.71
2023-06-15T04:28:18.059Z,14.93
2023-06-15T04:30:48.784Z,14.96
2023-06-15T04:33:15.532Z,15.18
2023-06-15T04:35:46.187Z,15.19
2023-06-15T04:38:16.399Z,15.19
2023-06-15T04:40:43.203Z,15.27
2023-06-15T04:43:09.893Z,15.53
2023-06-15T04:45:36.810Z,15.56
2023-06-15T04:48:03.592Z,15.78
2023-06-15T04:50:31.258Z,16.15
2023-06-15T04:52:58.259Z,16.43
2023-06-15T04:55:25.022Z,16.73
2023-06-15T04:57:51.565Z,16.66
2023-06-15T05:00:18.378Z,16.64
2023-06-15T05:02:45.248Z,16.53
2023-06-15T05:05:12.598Z,16.45
2023-06-15T05:07:39.108Z,16.64
2023-06-15T05:10:06.207Z,17.14
2023-06-15T05:12:32.907Z,17.54
2023-06-15T05:14:59.596Z,17.77
2023-06-15T05:17:26.616Z,17.93
2023-06-15T05:19:53.434Z,17.83
2023-06-15T05:22:20.255Z,17.55
2023-06-15T05:24:47.037Z,17.46
2023-06-15T05:27:13.656Z,17.62
2023-06-15T05:29:41.296Z,17.99
2023-06-15T05:32:08.739Z,18.50
2023-06-15T05:34:35.288Z,18.80
2023-06-15T05:37:01.844Z,19.09
2023-06-15T05:39:28.416Z,19.23
2023-06-15T05:41:54.960Z,19.15
2023-06-15T05:44:21.490Z,18.96
2023-06-15T05:46:47.996Z,19.02
2023-06-15T05:49:14.527Z,18.85
2023-06-15T05:51:41.086Z,18.53
2023-06-15T05:54:07.868Z,18.19
2023-06-15T05:56:34.397Z,18.09
2023-06-15T05:59:00.942Z,17.98
2023-06-15T06:01:27.464Z,17.90
2023-06-15T06:03:54.274Z,17.86
2023-06-15T06:06:20.890Z,17.78
2023-06-15T06:08:47.669Z,17.81
2023-06-15T06:11:14.286Z,17.81
2023-06-15T06:13:40.810Z,17.85
2023-06-15T06:16:07.378Z,17.80
2023-06-15T06:18:33.957Z,17.86
2023-06-15T06:21:00.605Z,18.13
2023-06-15T06:23:27.147Z,18.55
2023-06-15T06:25:53.696Z,18.82
2023-06-15T06:28:20.254Z,19.14
2023-06-15T06:30:46.774Z,18.92
2023-06-15T06:33:13.361Z,19.33
2023-06-15T06:35:39.906Z,19.82
2023-06-15T06:38:06.557Z,20.33
2023-06-15T06:40:33.075Z,20.38
2023-06-15T06:42:59.591Z,20.04
2023-06-15T06:45:29.222Z,20.24
2023-06-15T06:47:57.002Z,20.09
2023-06-15T06:50:23.572Z,20.64
2023-06-15T06:52:50.094Z,20.34
2023-06-15T06:55:17.075Z,20.28
2023-06-15T06:57:43.888Z,20.42
2023-06-15T07:00:11.745Z,20.75
2023-06-15T07:02:38.818Z,20.62
2023-06-15T07:05:05.699Z,20.45
2023-06-15T07:07:32.283Z,20.47
2023-06-15T07:09:58.815Z,20.55
2023-06-15T07:12:25.667Z,20.62
2023-06-15T07:14:52.360Z,20.91
2023-06-15T07:17:18.901Z,21.20
2023-06-15T07:19:46.549Z,21.19
2023-06-15T07:22:13.140Z,21.58
2023-06-15T07:24:39.730Z,21.39
2023-06-15T07:27:06.497Z,21.55
2023-06-15T07:29:32.989Z,20.95
2023-06-15T07:31:59.489Z,20.98
2023-06-15T07:34:26.119Z,21.35
2023-06-15T07:36:52.888Z,21.65
2023-06-15T07:39:19.481Z,22.23
2023-06-15T07:41:46.003Z,22.46
2023-06-15T07:44:13.752Z,22.60
2023-06-15T07:46:40.619Z,22.79
2023-06-15T07:49:07.804Z,22.50
2023-06-15T07:51:43.427Z,22.65
2023-06-15T07:54:14.677Z,22.65
2023-06-15T07:56:41.298Z,22.71
2023-06-15T07:59:08.145Z,22.98
2023-06-15T08:01:34.772Z,23.06
2023-06-15T08:04:01.399Z,23.14
2023-06-15T08:06:27.949Z,23.26
2023-06-15T08:08:54.455Z,23.24
2023-06-15T08:11:20.959Z,23.10
2023-06-15T08:13:47.674Z,23.27
2023-06-15T08:16:14.211Z,23.55
2023-06-15T08:18:40.734Z,23.72
2023-06-15T08:21:07.480Z,23.68
2023-06-15T08:23:34.020Z,23.52
2023-06-15T08:26:00.634Z,23.87
2023-06-15T08:28:27.803Z,23.76
2023-06-15T08:30:54.381Z,23.40
2023-06-15T08:33:21.128Z,23.31
2023-06-15T08:35:47.951Z,23.38
2023-06-15T08:38:14.474Z,23.47
2023-06-15T08:40:41.091Z,23.59
2023-06-15T08:43:08.138Z,24.06
2023-06-15T08:45:40.819Z,23.77
2023-06-15T08:48:08.658Z,23.96
2023-06-15T08:50:35.683Z,23.44
2023-06-15T08:53:02.189Z,23.44
2023-06-15T08:55:28.700Z,23.19
2023-06-15T08:57:55.220Z,23.71
2023-06-15T09:00:22.054Z,23.70
2023-06-15T09:02:48.782Z,23.72
2023-06-15T09:05:16.156Z,24.17
2023-06-15T09:07:42.941Z,24.15
2023-06-15T09:10:17.005Z,23.76
2023-06-15T09:12:48.276Z,24.08
2023-06-15T09:15:22.433Z,24.04
2023-06-15T09:17:58.615Z,24.04
2023-06-15T09:20:27.178Z,24.03
2023-06-15T09:22:58.299Z,24.25
2023-06-15T09:25:24.934Z,23.88
2023-06-15T09:27:55.795Z,23.87
2023-06-15T09:30:23.671Z,24.49
2023-06-15T09:32:50.278Z,24.20
2023-06-15T09:35:17.043Z,23.66
2023-06-15T09:37:43.638Z,23.99
2023-06-15T09:40:11.977Z,24.23
2023-06-15T09:42:40.468Z,24.36
2023-06-15T09:45:07.438Z,24.16
2023-06-15T09:47:34.490Z,24.32
2023-06-15T09:50:01.100Z,24.29
2023-06-15T09:52:27.642Z,24.51
2023-06-15T09:54:57.077Z,24.54
2023-06-15T09:57:23.616Z,24.83
2023-06-15T09:59:50.171Z,25.01
2023-06-15T10:02:17.885Z,25.06
2023-06-15T10:04:46.730Z,24.84
2023-06-15T10:07:13.769Z,25.02
2023-06-15T10:09:46.650Z,24.91
2023-06-15T10:12:14.734Z,24.59
2023-06-15T10:14:50.000Z,24.52
2023-06-15T10:17:17.771Z,25.06
2023-06-15T10:19:45.119Z,25.07
2023-06-15T10:22:20.867Z,24.75
2023-06-15T10:24:47.404Z,25.10
2023-06-15T10:27:13.949Z,25.31
2023-06-15T10:29:52.168Z,25.01
2023-06-15T10:32:36.245Z,25.32
2023-06-15T10:35:26.533Z,25.52
2023-06-15T10:38:07.137Z,24.95
2023-06-15T10:40:41.217Z,25.46
2023-06-15T10:43:07.737Z,25.73
2023-06-15T10:45:34.368Z,26.00
2023-06-15T10:48:02.038Z,26.41
2023-06-15T10:50:39.521Z,25.69
2023-06-15T10:53:06.187Z,25.81
2023-06-15T10:55:32.755Z,25.77
2023-06-15T10:58:16.234Z,25.87
2023-06-15T11:00:46.117Z,26.22
2023-06-15T11:03:33.138Z,26.32
2023-06-15T11:06:36.978Z,26.15
2023-06-15T11:09:10.531Z,25.59
2023-06-15T11:11:38.146Z,25.55
2023-06-15T11:14:08.688Z,25.88
2023-06-15T11:16:38.450Z,26.01
2023-06-15T11:19:11.334Z,25.04
2023-06-15T11:21:38.238Z,25.31
2023-06-15T11:24:05.080Z,25.91
2023-06-15T11:26:32.677Z,25.26
2023-06-15T11:29:02.317Z,25.41
2023-06-15T11:31:29.758Z,24.92
2023-06-15T11:33:56.899Z,24.24
2023-06-15T11:36:23.430Z,24.37
2023-06-15T11:38:49.996Z,25.35
2023-06-15T11:41:16.715Z,25.48
2023-06-15T11:43:50.083Z,25.66
2023-06-15T11:46:18.620Z,26.04
2023-06-15T11:48:45.437Z,26.43
2023-06-15T11:51:12.833Z,26.81
2023-06-15T11:53:40.452Z,26.94
2023-06-15T11:56:13.972Z,26.55
2023-06-15T11:58:44.595Z,26.95
2023-06-15T12:01:13.352Z,26.95
2023-06-15T12:04:02.341Z,27.38
2023-06-15T12:06:32.324Z,27.45
2023-06-15T12:08:58.915Z,26.79
2023-06-15T12:11:27.201Z,27.14
2023-06-15T12:13:54.036Z,26.87
2023-06-15T12:16:21.096Z,26.59
2023-06-15T12:18:54.954Z,27.23
2023-06-15T12:21:23.056Z,26.76
2023-06-15T12:23:50.915Z,27.66
2023-06-15T12:26:17.875Z,27.86
2023-06-15T12:28:48.952Z,28.12
2023-06-15T12:31:15.537Z,27.56
2023-06-15T12:33:44.273Z,26.96
2023-06-15T12:36:11.792Z,26.52
2023-06-15T12:38:38.734Z,27.29
2023-06-15T12:41:05.444Z,26.91
2023-06-15T12:43:32.002Z,27.09
2023-06-15T12:45:58.558Z,28.09
2023-06-15T12:48:25.216Z,28.10
2023-06-15T12:50:51.738Z,28.15
2023-06-15T12:53:22.122Z,28.39
2023-06-15T12:55:49.347Z,28.10
2023-06-15T12:58:16.228Z,26.88
2023-06-15T13:00:43.526Z,26.56
2023-06-15T13:03:11.297Z,27.26
2023-06-15T13:05:39.387Z,27.03
2023-06-15T13:08:06.571Z,26.44
2023-06-15T13:10:33.190Z,26.01
2023-06-15T13:12:59.732Z,25.83
2023-06-15T13:15:27.181Z,24.99
2023-06-15T13:17:54.058Z,24.98
2023-06-15T13:20:20.995Z,24.84
2023-06-15T13:22:49.142Z,25.13
2023-06-15T13:25:15.705Z,26.16
2023-06-15T13:27:42.268Z,27.02
2023-06-15T13:30:10.409Z,27.69
2023-06-15T13:32:38.260Z,27.99
2023-06-15T13:35:05.957Z,27.17
2023-06-15T13:37:34.942Z,26.51
2023-06-15T13:40:02.461Z,25.81
2023-06-15T13:42:29.094Z,25.64
2023-06-15T13:44:55.729Z,25.68
2023-06-15T13:47:22.302Z,25.80
2023-06-15T13:49:48.840Z,26.16
2023-06-15T13:52:15.410Z,25.81
2023-06-15T13:54:42.003Z,25.56
2023-06-15T13:57:08.611Z,25.19
2023-06-15T13:59:36.419Z,26.37
2023-06-15T14:02:03.488Z,26.30
2023-06-15T14:04:30.873Z,26.25
2023-06-15T14:07:00.035Z,27.15
2023-06-15T14:09:27.161Z,27.57
2023-06-15T14:11:53.899Z,27.34
2023-06-15T14:14:20.499Z,28.07
2023-06-15T14:16:47.119Z,27.34
2023-06-15T14:19:13.696Z,26.86
2023-06-15T14:21:40.240Z,27.71
2023-06-15T14:24:09.220Z,28.64
2023-06-15T14:26:35.747Z,27.47
2023-06-15T14:29:02.288Z,27.95
2023-06-15T14:31:28.860Z,28.04
2023-06-15T14:33:55.428Z,26.72
2023-06-15T14:36:21.986Z,25.72
2023-06-15T14:38:48.508Z,25.04
2023-06-15T14:41:15.006Z,24.75
2023-06-15T14:43:41.678Z,24.44
2023-06-15T14:46:08.248Z,24.05
2023-06-15T14:51:06.474Z,23.81
2023-06-15T14:53:32.998Z,23.79
2023-06-15T14:55:59.549Z,23.72
2023-06-15T14:58:26.155Z,24.65
2023-06-15T15:00:52.694Z,25.28
2023-06-15T15:03:19.357Z,25.58
2023-06-15T15:05:46.023Z,26.17
2023-06-15T15:08:12.556Z,26.81
2023-06-15T15:10:39.066Z,26.41
2023-06-15T15:13:05.583Z,26.13
2023-06-15T15:15:32.078Z,26.48
2023-06-15T15:17:58.636Z,26.81
2023-06-15T15:20:25.188Z,27.13
2023-06-15T15:22:51.755Z,27.07
2023-06-15T15:25:18.276Z,26.74
2023-06-15T15:27:45.039Z,26.63
2023-06-15T15:30:11.860Z,26.75
2023-06-15T15:32:38.397Z,27.04
2023-06-15T15:35:05.530Z,27.24
2023-06-15T15:37:32.173Z,27.27
2023-06-15T15:39:58.760Z,27.61
2023-06-15T15:42:25.388Z,26.93
2023-06-15T15:44:53.435Z,26.82
2023-06-15T15:47:20.169Z,26.56
2023-06-15T15:49:46.734Z,25.61
2023-06-15T15:52:13.787Z,24.64
2023-06-15T15:54:40.327Z,24.20
2023-06-15T15:57:07.028Z,23.94
2023-06-15T15:59:33.600Z,24.08
2023-06-15T16:02:00.202Z,24.12
2023-06-15T16:04:26.773Z,24.09
2023-06-15T16:06:53.982Z,24.05
2023-06-15T16:09:20.542Z,24.31
2023-06-15T16:11:47.072Z,24.19
2023-06-15T16:14:13.600Z,24.16
2023-06-15T16:16:40.225Z,24.20
2023-06-15T16:19:06.733Z,25.02
2023-06-15T16:21:33.265Z,25.24
2023-06-15T16:23:59.795Z,25.18
2023-06-15T16:26:26.323Z,24.75
2023-06-15T16:28:52.838Z,24.41
2023-06-15T16:31:19.478Z,24.04
2023-06-15T16:33:46.136Z,23.78
2023-06-15T16:36:12.714Z,23.61
2023-06-15T16:38:39.237Z,23.45
2023-06-15T16:41:05.756Z,23.10
2023-06-15T16:43:32.270Z,23.06
2023-06-15T16:45:59.131Z,23.12
2023-06-15T16:48:25.710Z,23.27
2023-06-15T16:50:52.597Z,23.03
2023-06-15T16:53:19.923Z,23.02
2023-06-15T16:55:46.496Z,22.57
2023-06-15T16:58:13.034Z,22.57
2023-06-15T17:00:39.932Z,22.62
2023-06-15T17:03:06.971Z,22.79
2023-06-15T17:05:33.727Z,22.69
2023-06-15T17:08:00.639Z,22.68
2023-06-15T17:10:27.160Z,22.54
2023-06-15T17:12:53.686Z,22.51
2023-06-15T17:15:20.286Z,22.60
2023-06-15T17:17:46.913Z,22.66
2023-06-15T17:20:13.584Z,22.63
2023-06-15T17:22:40.135Z,22.72
2023-06-15T17:25:06.768Z,22.82
2023-06-15T17:27:33.292Z,22.59
2023-06-15T17:29:59.817Z,22.50
2023-06-15T17:32:26.340Z,22.37
2023-06-15T17:34:52.893Z,22.09
2023-06-15T17:37:20.311Z,21.93
2023-06-15T17:39:46.841Z,22.04
2023-06-15T17:42:13.679Z,22.00
2023-06-15T17:44:40.222Z,21.75
2023-06-15T17:47:06.769Z,21.62
2023-06-15T17:49:33.292Z,21.65
2023-06-15T17:51:59.922Z,21.44
2023-06-15T17:54:26.454Z,21.39
2023-06-15T17:56:52.954Z,21.31
2023-06-15T17:59:19.492Z,21.20
2023-06-15T18:01:46.015Z,21.22
2023-06-15T18:04:12.722Z,21.15
2023-06-15T18:06:39.297Z,20.99
2023-06-15T18:09:05.868Z,21.12
2023-06-15T18:11:32.437Z,20.94
2023-06-15T18:13:58.955Z,21.02
2023-06-15T18:16:28.082Z,20.91
2023-06-15T18:18:54.662Z,20.95
2023-06-15T18:21:21.395Z,20.92
2023-06-15T18:23:47.918Z,20.84
2023-06-15T18:26:14.449Z,20.78
2023-06-15T18:28:41.223Z,20.66
2023-06-15T18:31:07.740Z,20.68
2023-06-15T18:33:34.291Z,20.65
2023-06-15T18:36:00.960Z,20.59
2023-06-15T18:38:29.530Z,20.74
2023-06-15T18:40:56.237Z,20.51
2023-06-15T18:43:22.737Z,20.48
2023-06-15T18:45:49.358Z,20.36
2023-06-15T18:48:16.233Z,20.35
2023-06-15T18:50:42.819Z,20.35
2023-06-15T18:53:09.326Z,20.32
2023-06-15T18:55:36.380Z,20.32
2023-06-15T18:58:04.711Z,20.27
2023-06-15T19:00:31.279Z,20.34
2023-06-15T19:02:57.933Z,20.20
2023-06-15T19:05:24.509Z,20.00
2023-06-15T19:07:51.112Z,19.94
2023-06-15T19:10:17.660Z,19.58
2023-06-15T19:12:44.267Z,19.48
2023-06-15T19:15:12.854Z,19.44
2023-06-15T19:17:39.848Z,19.29
2023-06-15T19:20:07.343Z,18.90
2023-06-15T19:22:33.880Z,18.86
2023-06-15T19:25:00.378Z,18.74
2023-06-15T19:27:26.964Z,18.71
2023-06-15T19:29:53.530Z,18.74
2023-06-15T19:32:20.054Z,18.70
2023-06-15T19:34:46.716Z,18.50
2023-06-15T19:37:13.480Z,18.30
2023-06-15T19:39:39.996Z,18.16
2023-06-15T19:42:06.615Z,18.09
2023-06-15T19:44:33.136Z,18.28
2023-06-15T19:46:59.668Z,18.16
2023-06-15T19:49:29.789Z,18.11
2023-06-15T19:51:57.319Z,18.11
2023-06-15T19:54:23.838Z,18.03
2023-06-15T19:56:50.361Z,18.18
2023-06-15T19:59:19.782Z,17.97
2023-06-15T20:01:46.486Z,17.82
2023-06-15T20:04:13.122Z,17.86
2023-06-15T20:06:39.770Z,17.82
2023-06-15T20:09:06.346Z,17.71
2023-06-15T20:11:32.857Z,17.64
2023-06-15T20:14:00.456Z,17.88
2023-06-15T20:16:26.998Z,17.86
2023-06-15T20:18:54.095Z,17.85
2023-06-15T20:21:21.718Z,17.77
2023-06-15T20:23:48.393Z,17.73
2023-06-15T20:26:17.340Z,17.74
2023-06-15T20:28:44.289Z,17.78
2023-06-15T20:31:10.850Z,17.84
2023-06-15T20:33:37.728Z,17.71
2023-06-15T20:36:04.997Z,17.59
2023-06-15T20:38:32.151Z,17.50
2023-06-15T20:40:59.055Z,17.43
2023-06-15T20:43:25.917Z,17.42
2023-06-15T20:45:52.526Z,17.43
2023-06-15T20:48:19.336Z,17.35
2023-06-15T20:50:46.714Z,17.47
2023-06-15T20:53:13.261Z,17.29
2023-06-15T20:55:39.801Z,17.21
2023-06-15T20:58:06.449Z,17.12
2023-06-15T21:00:34.259Z,17.10
2023-06-15T21:03:00.922Z,17.25
2023-06-15T21:05:27.599Z,16.99
2023-06-15T21:07:55.400Z,16.88
2023-06-15T21:10:23.945Z,16.88
2023-06-15T21:12:50.827Z,16.82
2023-06-15T21:15:17.406Z,16.76
2023-06-15T21:17:44.492Z,16.86
2023-06-15T21:20:11.815Z,17.10
2023-06-15T21:22:38.573Z,16.78
2023-06-15T21:25:05.620Z,16.64
2023-06-15T21:27:32.697Z,16.83
2023-06-15T21:29:59.218Z,16.51
2023-06-15T21:32:25.978Z,16.51
2023-06-15T21:34:53.001Z,16.48
2023-06-15T21:37:19.588Z,16.33
2023-06-15T21:39:47.117Z,16.26
2023-06-15T21:42:13.682Z,16.17
2023-06-15T21:44:41.269Z,16.06
2023-06-15T21:47:07.787Z,15.83
2023-06-15T21:49:34.340Z,15.75
2023-06-15T21:52:02.726Z,15.70
2023-06-15T21:54:29.247Z,15.58
2023-06-15T21:56:55.836Z,15.57
2023-06-15T21:59:22.596Z,15.50
2023-06-15T22:01:49.254Z,15.47
2023-06-15T22:04:15.786Z,15.48
2023-06-15T22:06:42.487Z,15.56
2023-06-15T22:09:10.162Z,15.52
2023-06-15T22:11:36.666Z,15.48
2023-06-15T22:14:04.006Z,15.38
2023-06-15T22:16:30.588Z,15.18
2023-06-15T22:18:57.645Z,15.06
2023-06-15T22:21:24.168Z,15.09
2023-06-15T22:23:50.718Z,14.93
2023-06-15T22:26:20.019Z,14.90
2023-06-15T22:28:46.709Z,14.96
2023-06-15T22:31:13.241Z,14.84
2023-06-15T22:33:41.599Z,14.86
2023-06-15T22:36:09.403Z,14.87
2023-06-15T22:38:38.950Z,14.77
2023-06-15T22:41:06.277Z,14.76
2023-06-15T22:43:32.804Z,14.84
2023-06-15T22:46:02.060Z,14.79
2023-06-15T22:48:29.066Z,14.88
2023-06-15T22:50:58.414Z,14.95
2023-06-15T22:53:25.366Z,14.87
2023-06-15T22:55:53.006Z,14.81
2023-06-15T22:58:20.396Z,14.94
2023-06-15T23:00:46.944Z,14.78
2023-06-15T23:03:13.470Z,14.83
2023-06-15T23:05:40.065Z,14.71
2023-06-15T23:08:10.831Z,14.73
2023-06-15T23:10:37.810Z,14.67
2023-06-15T23:13:04.323Z,14.60
2023-06-15T23:15:33.436Z,14.61
2023-06-15T23:18:03.225Z,14.78
2023-06-15T23:20:30.460Z,14.79
2023-06-15T23:22:59.410Z,14.84
2023-06-15T23:25:27.634Z,14.75
2023-06-15T23:28:00.303Z,14.73
2023-06-15T23:30:28.817Z,14.72
2023-06-15T23:32:55.422Z,14.50
2023-06-15T23:35:21.954Z,14.45
2023-06-15T23:37:48.531Z,14.41
2023-06-15T23:40:15.163Z,14.57
2023-06-15T23:42:41.854Z,14.57
2023-06-15T23:45:08.731Z,14.46
2023-06-15T23:47:35.362Z,14.43
2023-06-15T23:50:01.870Z,14.35
2023-06-15T23:52:28.640Z,14.32
2023-06-15T23:54:55.150Z,14.40
2023-06-15T23:57:21.659Z,14.42
2023-06-15T23:59:48.172Z,14.42
